sensor_id;sensor_type;location;lat;lon;timestamp;P1;durP1;ratioP1;P2;durP2;ratioP2
20966;SDS011;10642;50.682;18.510;2023-03-14T00:00:12;11.17;;;3.67;;
20966;SDS011;10642;50.682;18.510;2023-03-14T00:02:40;11.80;;;4.30;;
20966;SDS011;10642;50.682;18.510;2023-03-14T00:05:08;8.97;;;3.40;;
20966;SDS011;10642;50.682;18.510;2023-03-14T00:07:36;9.57;;;4.00;;
20966;SDS011;10642;50.682;18.510;2023-03-14T00:10:10;15.57;;;5.20;;
20966;SDS011;10642;50.682;18.510;2023-03-14T00:12:37;10.43;;;3.93;;
20966;SDS011;10642;50.682;18.510;2023-03-14T00:15:04;10.90;;;4.30;;
20966;SDS011;10642;50.682;18.510;2023-03-14T00:17:33;9.77;;;4.13;;
20966;SDS011;10642;50.682;18.510;2023-03-14T00:20:01;9.73;;;4.47;;
20966;SDS011;10642;50.682;18.510;2023-03-14T00:22:35;14.90;;;4.63;;
20966;SDS011;10642;50.682;18.510;2023-03-14T00:25:02;10.73;;;4.33;;
20966;SDS011;10642;50.682;18.510;2023-03-14T00:27:29;13.00;;;5.33;;
20966;SDS011;10642;50.682;18.510;2023-03-14T00:29:56;8.40;;;4.20;;
20966;SDS011;10642;50.682;18.510;2023-03-14T00:32:23;9.43;;;5.00;;
20966;SDS011;10642;50.682;18.510;2023-03-14T00:34:50;11.50;;;5.10;;
20966;SDS011;10642;50.682;18.510;2023-03-14T00:37:17;10.17;;;5.23;;
20966;SDS011;10642;50.682;18.510;2023-03-14T00:39:44;11.23;;;5.37;;
20966;SDS011;10642;50.682;18.510;2023-03-14T00:42:11;10.53;;;5.67;;
20966;SDS011;10642;50.682;18.510;2023-03-14T00:44:38;14.37;;;5.70;;
20966;SDS011;10642;50.682;18.510;2023-03-14T00:47:06;12.97;;;5.87;;
20966;SDS011;10642;50.682;18.510;2023-03-14T00:49:33;13.87;;;5.77;;
20966;SDS011;10642;50.682;18.510;2023-03-14T00:52:00;15.17;;;6.60;;
20966;SDS011;10642;50.682;18.510;2023-03-14T00:54:27;11.20;;;5.93;;
20966;SDS011;10642;50.682;18.510;2023-03-14T00:56:54;16.33;;;5.87;;
20966;SDS011;10642;50.682;18.510;2023-03-14T00:59:22;11.00;;;5.53;;
20966;SDS011;10642;50.682;18.510;2023-03-14T01:01:48;10.70;;;4.67;;
20966;SDS011;10642;50.682;18.510;2023-03-14T01:04:15;10.50;;;4.90;;
20966;SDS011;10642;50.682;18.510;2023-03-14T01:06:42;11.23;;;4.90;;
20966;SDS011;10642;50.682;18.510;2023-03-14T01:09:09;11.03;;;5.23;;
20966;SDS011;10642;50.682;18.510;2023-03-14T01:11:36;14.87;;;4.67;;
20966;SDS011;10642;50.682;18.510;2023-03-14T01:14:03;15.57;;;6.73;;
20966;SDS011;10642;50.682;18.510;2023-03-14T01:16:32;14.07;;;5.80;;
20966;SDS011;10642;50.682;18.510;2023-03-14T01:19:00;12.80;;;5.57;;
20966;SDS011;10642;50.682;18.510;2023-03-14T01:21:28;17.57;;;6.47;;
20966;SDS011;10642;50.682;18.510;2023-03-14T01:23:56;12.67;;;6.27;;
20966;SDS011;10642;50.682;18.510;2023-03-14T01:26:24;16.13;;;7.10;;
20966;SDS011;10642;50.682;18.510;2023-03-14T01:28:53;17.50;;;7.87;;
20966;SDS011;10642;50.682;18.510;2023-03-14T01:31:20;17.87;;;7.00;;
20966;SDS011;10642;50.682;18.510;2023-03-14T01:33:47;20.23;;;8.67;;
20966;SDS011;10642;50.682;18.510;2023-03-14T01:36:15;16.73;;;8.13;;
20966;SDS011;10642;50.682;18.510;2023-03-14T01:38:43;17.10;;;6.80;;
20966;SDS011;10642;50.682;18.510;2023-03-14T01:41:17;18.17;;;8.53;;
20966;SDS011;10642;50.682;18.510;2023-03-14T01:43:44;20.40;;;8.90;;
20966;SDS011;10642;50.682;18.510;2023-03-14T01:46:14;17.83;;;9.30;;
20966;SDS011;10642;50.682;18.510;2023-03-14T01:51:15;21.63;;;11.20;;
20966;SDS011;10642;50.682;18.510;2023-03-14T01:53:44;24.23;;;11.97;;
20966;SDS011;10642;50.682;18.510;2023-03-14T01:56:12;25.23;;;12.30;;
20966;SDS011;10642;50.682;18.510;2023-03-14T01:58:40;23.93;;;11.13;;
20966;SDS011;10642;50.682;18.510;2023-03-14T02:01:08;22.97;;;11.53;;
20966;SDS011;10642;50.682;18.510;2023-03-14T02:03:37;19.20;;;10.90;;
20966;SDS011;10642;50.682;18.510;2023-03-14T02:06:06;22.33;;;11.87;;
20966;SDS011;10642;50.682;18.510;2023-03-14T02:08:38;19.10;;;10.40;;
20966;SDS011;10642;50.682;18.510;2023-03-14T02:11:12;19.50;;;10.37;;
20966;SDS011;10642;50.682;18.510;2023-03-14T02:14:02;20.57;;;10.37;;
20966;SDS011;10642;50.682;18.510;2023-03-14T02:16:49;20.73;;;11.43;;
20966;SDS011;10642;50.682;18.510;2023-03-14T02:19:57;21.63;;;12.00;;
20966;SDS011;10642;50.682;18.510;2023-03-14T02:22:35;23.57;;;11.70;;
20966;SDS011;10642;50.682;18.510;2023-03-14T02:25:12;21.47;;;11.13;;
20966;SDS011;10642;50.682;18.510;2023-03-14T02:27:40;23.53;;;12.00;;
20966;SDS011;10642;50.682;18.510;2023-03-14T02:30:11;26.50;;;12.07;;
20966;SDS011;10642;50.682;18.510;2023-03-14T02:32:41;22.50;;;11.43;;
20966;SDS011;10642;50.682;18.510;2023-03-14T02:35:14;27.17;;;12.47;;
20966;SDS011;10642;50.682;18.510;2023-03-14T02:40:12;27.07;;;12.13;;
20966;SDS011;10642;50.682;18.510;2023-03-14T02:42:40;25.00;;;11.03;;
20966;SDS011;10642;50.682;18.510;2023-03-14T02:47:39;22.63;;;11.00;;
20966;SDS011;10642;50.682;18.510;2023-03-14T02:50:10;30.97;;;16.53;;
20966;SDS011;10642;50.682;18.510;2023-03-14T02:52:38;24.17;;;12.93;;
20966;SDS011;10642;50.682;18.510;2023-03-14T02:55:06;23.67;;;12.80;;
20966;SDS011;10642;50.682;18.510;2023-03-14T02:57:34;28.07;;;14.30;;
20966;SDS011;10642;50.682;18.510;2023-03-14T03:00:02;25.70;;;14.90;;
20966;SDS011;10642;50.682;18.510;2023-03-14T03:02:34;24.03;;;13.97;;
20966;SDS011;10642;50.682;18.510;2023-03-14T03:05:01;26.53;;;12.97;;
20966;SDS011;10642;50.682;18.510;2023-03-14T03:07:28;21.83;;;12.17;;
20966;SDS011;10642;50.682;18.510;2023-03-14T03:09:56;22.97;;;10.83;;
20966;SDS011;10642;50.682;18.510;2023-03-14T03:12:23;22.63;;;10.30;;
20966;SDS011;10642;50.682;18.510;2023-03-14T03:14:50;23.10;;;10.07;;
20966;SDS011;10642;50.682;18.510;2023-03-14T03:17:17;19.77;;;10.30;;
20966;SDS011;10642;50.682;18.510;2023-03-14T03:19:44;25.27;;;11.70;;
20966;SDS011;10642;50.682;18.510;2023-03-14T03:22:11;22.63;;;10.50;;
20966;SDS011;10642;50.682;18.510;2023-03-14T03:24:39;22.40;;;10.40;;
20966;SDS011;10642;50.682;18.510;2023-03-14T03:27:06;16.27;;;8.17;;
20966;SDS011;10642;50.682;18.510;2023-03-14T03:29:34;15.67;;;8.20;;
20966;SDS011;10642;50.682;18.510;2023-03-14T03:32:01;15.93;;;8.03;;
20966;SDS011;10642;50.682;18.510;2023-03-14T03:34:28;15.60;;;6.17;;
20966;SDS011;10642;50.682;18.510;2023-03-14T03:36:56;12.27;;;6.40;;
20966;SDS011;10642;50.682;18.510;2023-03-14T03:39:24;15.93;;;9.40;;
20966;SDS011;10642;50.682;18.510;2023-03-14T03:41:51;17.20;;;8.80;;
20966;SDS011;10642;50.682;18.510;2023-03-14T03:44:19;16.00;;;8.37;;
20966;SDS011;10642;50.682;18.510;2023-03-14T03:46:46;19.97;;;8.20;;
20966;SDS011;10642;50.682;18.510;2023-03-14T03:49:13;14.53;;;7.17;;
20966;SDS011;10642;50.682;18.510;2023-03-14T03:51:40;11.90;;;6.37;;
20966;SDS011;10642;50.682;18.510;2023-03-14T03:54:07;11.83;;;6.60;;
20966;SDS011;10642;50.682;18.510;2023-03-14T03:56:34;9.97;;;5.60;;
20966;SDS011;10642;50.682;18.510;2023-03-14T03:59:00;11.93;;;5.77;;
20966;SDS011;10642;50.682;18.510;2023-03-14T04:01:27;11.53;;;5.53;;
20966;SDS011;10642;50.682;18.510;2023-03-14T04:03:57;13.47;;;5.60;;
20966;SDS011;10642;50.682;18.510;2023-03-14T04:06:25;9.90;;;5.03;;
20966;SDS011;10642;50.682;18.510;2023-03-14T04:08:55;8.97;;;5.10;;
20966;SDS011;10642;50.682;18.510;2023-03-14T04:11:44;10.97;;;5.20;;
20966;SDS011;10642;50.682;18.510;2023-03-14T04:14:32;12.17;;;4.87;;
20966;SDS011;10642;50.682;18.510;2023-03-14T04:17:19;10.07;;;5.33;;
20966;SDS011;10642;50.682;18.510;2023-03-14T04:19:47;14.63;;;5.93;;
20966;SDS011;10642;50.682;18.510;2023-03-14T04:22:20;9.77;;;5.13;;
20966;SDS011;10642;50.682;18.510;2023-03-14T04:24:51;11.07;;;5.83;;
20966;SDS011;10642;50.682;18.510;2023-03-14T04:27:19;11.10;;;5.63;;
20966;SDS011;10642;50.682;18.510;2023-03-14T04:29:47;10.77;;;6.40;;
20966;SDS011;10642;50.682;18.510;2023-03-14T04:32:18;12.87;;;5.63;;
20966;SDS011;10642;50.682;18.510;2023-03-14T04:34:46;10.63;;;4.93;;
20966;SDS011;10642;50.682;18.510;2023-03-14T04:37:13;9.97;;;4.80;;
20966;SDS011;10642;50.682;18.510;2023-03-14T04:39:43;8.13;;;4.67;;
20966;SDS011;10642;50.682;18.510;2023-03-14T04:42:24;15.40;;;4.80;;
20966;SDS011;10642;50.682;18.510;2023-03-14T04:44:51;12.53;;;4.60;;
20966;SDS011;10642;50.682;18.510;2023-03-14T04:47:21;11.83;;;5.47;;
20966;SDS011;10642;50.682;18.510;2023-03-14T04:49:49;7.57;;;4.00;;
20966;SDS011;10642;50.682;18.510;2023-03-14T04:52:17;12.60;;;5.33;;
20966;SDS011;10642;50.682;18.510;2023-03-14T04:54:46;13.70;;;4.53;;
20966;SDS011;10642;50.682;18.510;2023-03-14T04:57:13;12.93;;;5.20;;
20966;SDS011;10642;50.682;18.510;2023-03-14T04:59:40;12.97;;;5.40;;
20966;SDS011;10642;50.682;18.510;2023-03-14T05:02:25;7.90;;;4.00;;
20966;SDS011;10642;50.682;18.510;2023-03-14T05:05:16;9.03;;;3.90;;
20966;SDS011;10642;50.682;18.510;2023-03-14T05:08:12;8.47;;;4.00;;
20966;SDS011;10642;50.682;18.510;2023-03-14T05:10:53;13.40;;;4.57;;
20966;SDS011;10642;50.682;18.510;2023-03-14T05:13:56;13.43;;;3.90;;
20966;SDS011;10642;50.682;18.510;2023-03-14T05:16:41;9.23;;;4.37;;
20966;SDS011;10642;50.682;18.510;2023-03-14T05:19:39;11.07;;;4.40;;
20966;SDS011;10642;50.682;18.510;2023-03-14T05:22:24;7.97;;;4.13;;
20966;SDS011;10642;50.682;18.510;2023-03-14T05:25:26;10.37;;;4.87;;
20966;SDS011;10642;50.682;18.510;2023-03-14T05:28:12;8.60;;;4.43;;
20966;SDS011;10642;50.682;18.510;2023-03-14T05:31:09;10.17;;;4.63;;
20966;SDS011;10642;50.682;18.510;2023-03-14T05:33:51;11.17;;;4.57;;
20966;SDS011;10642;50.682;18.510;2023-03-14T05:36:57;8.90;;;4.37;;
20966;SDS011;10642;50.682;18.510;2023-03-14T05:39:46;8.37;;;3.93;;
20966;SDS011;10642;50.682;18.510;2023-03-14T05:42:43;9.03;;;4.10;;
20966;SDS011;10642;50.682;18.510;2023-03-14T05:45:18;8.97;;;3.73;;
20966;SDS011;10642;50.682;18.510;2023-03-14T05:47:55;9.47;;;3.70;;
20966;SDS011;10642;50.682;18.510;2023-03-14T05:50:34;12.70;;;4.27;;
20966;SDS011;10642;50.682;18.510;2023-03-14T05:53:24;8.60;;;3.97;;
20966;SDS011;10642;50.682;18.510;2023-03-14T05:56:11;10.10;;;4.37;;
20966;SDS011;10642;50.682;18.510;2023-03-14T05:58:58;11.60;;;5.23;;
20966;SDS011;10642;50.682;18.510;2023-03-14T06:01:51;7.50;;;4.20;;
20966;SDS011;10642;50.682;18.510;2023-03-14T06:04:22;9.03;;;3.60;;
20966;SDS011;10642;50.682;18.510;2023-03-14T06:06:54;10.83;;;4.00;;
20966;SDS011;10642;50.682;18.510;2023-03-14T06:09:21;8.53;;;3.43;;
20966;SDS011;10642;50.682;18.510;2023-03-14T06:11:52;9.37;;;3.63;;
20966;SDS011;10642;50.682;18.510;2023-03-14T06:14:19;9.83;;;3.10;;
20966;SDS011;10642;50.682;18.510;2023-03-14T06:16:48;6.23;;;3.57;;
20966;SDS011;10642;50.682;18.510;2023-03-14T06:19:18;6.67;;;3.20;;
20966;SDS011;10642;50.682;18.510;2023-03-14T06:21:44;6.63;;;2.87;;
20966;SDS011;10642;50.682;18.510;2023-03-14T06:24:12;7.00;;;3.73;;
20966;SDS011;10642;50.682;18.510;2023-03-14T06:26:44;5.37;;;2.90;;
20966;SDS011;10642;50.682;18.510;2023-03-14T06:29:11;9.83;;;3.27;;
20966;SDS011;10642;50.682;18.510;2023-03-14T06:31:38;10.73;;;4.03;;
20966;SDS011;10642;50.682;18.510;2023-03-14T06:34:06;9.30;;;3.73;;
20966;SDS011;10642;50.682;18.510;2023-03-14T06:36:33;8.73;;;3.63;;
20966;SDS011;10642;50.682;18.510;2023-03-14T06:39:01;7.37;;;3.47;;
20966;SDS011;10642;50.682;18.510;2023-03-14T06:41:30;7.40;;;3.53;;
20966;SDS011;10642;50.682;18.510;2023-03-14T06:43:58;8.53;;;3.80;;
20966;SDS011;10642;50.682;18.510;2023-03-14T06:46:26;10.20;;;3.63;;
20966;SDS011;10642;50.682;18.510;2023-03-14T06:48:53;7.27;;;3.60;;
20966;SDS011;10642;50.682;18.510;2023-03-14T06:51:20;6.67;;;3.00;;
20966;SDS011;10642;50.682;18.510;2023-03-14T06:53:48;5.07;;;3.27;;
20966;SDS011;10642;50.682;18.510;2023-03-14T06:56:16;11.23;;;3.93;;
20966;SDS011;10642;50.682;18.510;2023-03-14T06:58:43;4.97;;;2.00;;
20966;SDS011;10642;50.682;18.510;2023-03-14T07:01:20;6.23;;;2.83;;
20966;SDS011;10642;50.682;18.510;2023-03-14T07:03:48;8.47;;;3.10;;
20966;SDS011;10642;50.682;18.510;2023-03-14T07:06:15;5.67;;;2.30;;
20966;SDS011;10642;50.682;18.510;2023-03-14T07:08:42;7.50;;;2.47;;
20966;SDS011;10642;50.682;18.510;2023-03-14T07:11:09;7.63;;;2.80;;
20966;SDS011;10642;50.682;18.510;2023-03-14T07:13:40;8.90;;;3.17;;
20966;SDS011;10642;50.682;18.510;2023-03-14T07:16:07;7.60;;;3.13;;
20966;SDS011;10642;50.682;18.510;2023-03-14T07:18:35;2.47;;;1.33;;
20966;SDS011;10642;50.682;18.510;2023-03-14T07:21:07;7.80;;;2.47;;
20966;SDS011;10642;50.682;18.510;2023-03-14T07:23:36;3.93;;;1.77;;
20966;SDS011;10642;50.682;18.510;2023-03-14T07:26:04;5.03;;;2.37;;
20966;SDS011;10642;50.682;18.510;2023-03-14T07:28:32;2.77;;;1.33;;
20966;SDS011;10642;50.682;18.510;2023-03-14T07:31:13;5.77;;;2.23;;
20966;SDS011;10642;50.682;18.510;2023-03-14T07:33:40;4.77;;;2.23;;
20966;SDS011;10642;50.682;18.510;2023-03-14T07:36:07;6.63;;;2.60;;
20966;SDS011;10642;50.682;18.510;2023-03-14T07:38:35;6.27;;;2.40;;
20966;SDS011;10642;50.682;18.510;2023-03-14T07:41:22;5.63;;;2.83;;
20966;SDS011;10642;50.682;18.510;2023-03-14T07:44:08;3.50;;;1.80;;
20966;SDS011;10642;50.682;18.510;2023-03-14T07:46:35;12.00;;;3.37;;
20966;SDS011;10642;50.682;18.510;2023-03-14T07:49:02;9.27;;;3.27;;
20966;SDS011;10642;50.682;18.510;2023-03-14T07:51:28;5.77;;;2.43;;
20966;SDS011;10642;50.682;18.510;2023-03-14T07:53:55;4.47;;;2.30;;
20966;SDS011;10642;50.682;18.510;2023-03-14T07:56:22;5.90;;;2.70;;
20966;SDS011;10642;50.682;18.510;2023-03-14T07:58:49;8.20;;;3.27;;
20966;SDS011;10642;50.682;18.510;2023-03-14T08:01:16;4.93;;;2.63;;
20966;SDS011;10642;50.682;18.510;2023-03-14T08:03:43;5.63;;;2.17;;
20966;SDS011;10642;50.682;18.510;2023-03-14T08:06:10;7.17;;;3.57;;
20966;SDS011;10642;50.682;18.510;2023-03-14T08:08:37;3.23;;;1.73;;
20966;SDS011;10642;50.682;18.510;2023-03-14T08:11:05;6.20;;;2.50;;
20966;SDS011;10642;50.682;18.510;2023-03-14T08:13:32;6.63;;;3.13;;
20966;SDS011;10642;50.682;18.510;2023-03-14T08:15:59;8.53;;;2.10;;
20966;SDS011;10642;50.682;18.510;2023-03-14T08:18:26;4.07;;;2.03;;
20966;SDS011;10642;50.682;18.510;2023-03-14T08:20:53;3.30;;;1.80;;
20966;SDS011;10642;50.682;18.510;2023-03-14T08:23:20;10.30;;;2.37;;
20966;SDS011;10642;50.682;18.510;2023-03-14T08:25:50;5.13;;;2.27;;
20966;SDS011;10642;50.682;18.510;2023-03-14T08:28:18;2.23;;;1.17;;
20966;SDS011;10642;50.682;18.510;2023-03-14T08:30:45;3.90;;;2.10;;
20966;SDS011;10642;50.682;18.510;2023-03-14T08:33:13;3.20;;;1.63;;
20966;SDS011;10642;50.682;18.510;2023-03-14T08:35:40;6.97;;;3.03;;
20966;SDS011;10642;50.682;18.510;2023-03-14T08:38:07;4.67;;;2.27;;
20966;SDS011;10642;50.682;18.510;2023-03-14T08:40:34;3.80;;;2.07;;
20966;SDS011;10642;50.682;18.510;2023-03-14T08:43:01;9.50;;;3.83;;
20966;SDS011;10642;50.682;18.510;2023-03-14T08:45:28;9.40;;;2.77;;
20966;SDS011;10642;50.682;18.510;2023-03-14T08:47:55;5.30;;;2.67;;
20966;SDS011;10642;50.682;18.510;2023-03-14T08:50:21;5.70;;;2.67;;
20966;SDS011;10642;50.682;18.510;2023-03-14T08:52:49;9.33;;;3.67;;
20966;SDS011;10642;50.682;18.510;2023-03-14T08:55:17;6.73;;;3.50;;
20966;SDS011;10642;50.682;18.510;2023-03-14T08:57:43;4.97;;;1.83;;
20966;SDS011;10642;50.682;18.510;2023-03-14T09:00:10;6.27;;;3.20;;
20966;SDS011;10642;50.682;18.510;2023-03-14T09:02:41;6.90;;;2.57;;
20966;SDS011;10642;50.682;18.510;2023-03-14T09:05:10;7.17;;;3.10;;
20966;SDS011;10642;50.682;18.510;2023-03-14T09:07:37;7.67;;;3.70;;
20966;SDS011;10642;50.682;18.510;2023-03-14T09:10:04;8.70;;;3.23;;
20966;SDS011;10642;50.682;18.510;2023-03-14T09:12:31;4.00;;;1.97;;
20966;SDS011;10642;50.682;18.510;2023-03-14T09:14:58;4.57;;;2.07;;
20966;SDS011;10642;50.682;18.510;2023-03-14T09:17:26;6.93;;;2.73;;
20966;SDS011;10642;50.682;18.510;2023-03-14T09:19:53;4.77;;;1.87;;
20966;SDS011;10642;50.682;18.510;2023-03-14T09:22:20;5.20;;;2.57;;
20966;SDS011;10642;50.682;18.510;2023-03-14T09:24:47;7.17;;;3.03;;
20966;SDS011;10642;50.682;18.510;2023-03-14T09:27:14;2.93;;;1.67;;
20966;SDS011;10642;50.682;18.510;2023-03-14T09:29:40;4.33;;;2.17;;
20966;SDS011;10642;50.682;18.510;2023-03-14T09:32:07;5.97;;;2.37;;
20966;SDS011;10642;50.682;18.510;2023-03-14T09:34:35;7.93;;;2.80;;
20966;SDS011;10642;50.682;18.510;2023-03-14T09:37:02;7.73;;;2.33;;
20966;SDS011;10642;50.682;18.510;2023-03-14T09:39:29;5.90;;;2.97;;
20966;SDS011;10642;50.682;18.510;2023-03-14T09:41:56;4.90;;;2.03;;
20966;SDS011;10642;50.682;18.510;2023-03-14T09:44:25;4.73;;;2.33;;
20966;SDS011;10642;50.682;18.510;2023-03-14T09:46:54;6.77;;;2.10;;
20966;SDS011;10642;50.682;18.510;2023-03-14T09:49:28;7.37;;;3.13;;
20966;SDS011;10642;50.682;18.510;2023-03-14T09:51:56;8.50;;;4.17;;
20966;SDS011;10642;50.682;18.510;2023-03-14T09:57:03;5.70;;;3.10;;
20966;SDS011;10642;50.682;18.510;2023-03-14T09:59:30;14.33;;;3.63;;
20966;SDS011;10642;50.682;18.510;2023-03-14T10:02:00;6.17;;;3.30;;
20966;SDS011;10642;50.682;18.510;2023-03-14T10:04:28;5.63;;;1.90;;
20966;SDS011;10642;50.682;18.510;2023-03-14T10:06:56;6.57;;;2.90;;
20966;SDS011;10642;50.682;18.510;2023-03-14T10:09:23;5.60;;;2.80;;
20966;SDS011;10642;50.682;18.510;2023-03-14T10:11:56;9.83;;;3.97;;
20966;SDS011;10642;50.682;18.510;2023-03-14T10:14:31;11.03;;;4.17;;
20966;SDS011;10642;50.682;18.510;2023-03-14T10:17:04;7.67;;;4.00;;
20966;SDS011;10642;50.682;18.510;2023-03-14T10:19:31;5.60;;;2.57;;
20966;SDS011;10642;50.682;18.510;2023-03-14T10:22:00;6.53;;;2.60;;
20966;SDS011;10642;50.682;18.510;2023-03-14T10:24:27;2.10;;;1.20;;
20966;SDS011;10642;50.682;18.510;2023-03-14T10:26:58;8.00;;;3.00;;
20966;SDS011;10642;50.682;18.510;2023-03-14T10:29:28;9.80;;;3.60;;
20966;SDS011;10642;50.682;18.510;2023-03-14T10:32:03;7.20;;;3.53;;
20966;SDS011;10642;50.682;18.510;2023-03-14T10:34:31;9.93;;;3.63;;
20966;SDS011;10642;50.682;18.510;2023-03-14T10:37:03;6.50;;;3.13;;
20966;SDS011;10642;50.682;18.510;2023-03-14T10:39:35;5.77;;;2.73;;
20966;SDS011;10642;50.682;18.510;2023-03-14T10:42:16;7.83;;;3.47;;
20966;SDS011;10642;50.682;18.510;2023-03-14T10:44:46;6.53;;;3.03;;
20966;SDS011;10642;50.682;18.510;2023-03-14T10:47:16;9.80;;;3.60;;
20966;SDS011;10642;50.682;18.510;2023-03-14T10:49:44;3.03;;;2.00;;
20966;SDS011;10642;50.682;18.510;2023-03-14T10:52:18;8.37;;;4.67;;
20966;SDS011;10642;50.682;18.510;2023-03-14T10:54:49;12.40;;;5.50;;
20966;SDS011;10642;50.682;18.510;2023-03-14T10:57:20;8.70;;;4.03;;
20966;SDS011;10642;50.682;18.510;2023-03-14T10:59:48;9.13;;;5.00;;
20966;SDS011;10642;50.682;18.510;2023-03-14T11:07:27;12.97;;;3.93;;
20966;SDS011;10642;50.682;18.510;2023-03-14T11:23:52;7.93;;;4.77;;
20966;SDS011;10642;50.682;18.510;2023-03-14T11:28:38;9.57;;;4.90;;
20966;SDS011;10642;50.682;18.510;2023-03-14T11:31:11;8.20;;;3.90;;
20966;SDS011;10642;50.682;18.510;2023-03-14T11:34:01;9.50;;;4.13;;
20966;SDS011;10642;50.682;18.510;2023-03-14T11:36:33;7.80;;;4.20;;
20966;SDS011;10642;50.682;18.510;2023-03-14T11:39:03;12.23;;;5.33;;
20966;SDS011;10642;50.682;18.510;2023-03-14T11:41:41;9.63;;;4.17;;
20966;SDS011;10642;50.682;18.510;2023-03-14T11:46:43;13.17;;;5.63;;
20966;SDS011;10642;50.682;18.510;2023-03-14T11:51:43;11.97;;;5.83;;
20966;SDS011;10642;50.682;18.510;2023-03-14T12:00:01;11.17;;;6.07;;
20966;SDS011;10642;50.682;18.510;2023-03-14T12:03:00;12.20;;;5.23;;
20966;SDS011;10642;50.682;18.510;2023-03-14T12:08:39;9.17;;;5.23;;
20966;SDS011;10642;50.682;18.510;2023-03-14T12:11:14;13.00;;;6.63;;
20966;SDS011;10642;50.682;18.510;2023-03-14T12:13:45;10.77;;;5.80;;
20966;SDS011;10642;50.682;18.510;2023-03-14T12:16:22;10.93;;;5.80;;
20966;SDS011;10642;50.682;18.510;2023-03-14T12:18:51;12.60;;;6.23;;
20966;SDS011;10642;50.682;18.510;2023-03-14T12:21:18;12.67;;;5.30;;
20966;SDS011;10642;50.682;18.510;2023-03-14T12:23:52;11.73;;;6.77;;
20966;SDS011;10642;50.682;18.510;2023-03-14T12:26:21;17.47;;;7.93;;
20966;SDS011;10642;50.682;18.510;2023-03-14T12:41:52;18.60;;;10.30;;
20966;SDS011;10642;50.682;18.510;2023-03-14T12:47:00;15.73;;;9.07;;
20966;SDS011;10642;50.682;18.510;2023-03-14T12:49:34;16.33;;;10.20;;
20966;SDS011;10642;50.682;18.510;2023-03-14T12:52:10;17.57;;;10.13;;
20966;SDS011;10642;50.682;18.510;2023-03-14T12:54:51;19.60;;;10.43;;
20966;SDS011;10642;50.682;18.510;2023-03-14T13:00:17;14.67;;;8.67;;
20966;SDS011;10642;50.682;18.510;2023-03-14T13:02:42;16.63;;;10.03;;
20966;SDS011;10642;50.682;18.510;2023-03-14T13:12:39;22.27;;;10.43;;
20966;SDS011;10642;50.682;18.510;2023-03-14T13:15:40;18.17;;;9.20;;
20966;SDS011;10642;50.682;18.510;2023-03-14T13:18:09;13.93;;;8.67;;
20966;SDS011;10642;50.682;18.510;2023-03-14T13:20:37;18.33;;;11.10;;
20966;SDS011;10642;50.682;18.510;2023-03-14T13:23:05;17.30;;;9.73;;
20966;SDS011;10642;50.682;18.510;2023-03-14T13:25:32;14.90;;;9.73;;
20966;SDS011;10642;50.682;18.510;2023-03-14T13:28:00;14.63;;;9.30;;
20966;SDS011;10642;50.682;18.510;2023-03-14T13:30:28;15.03;;;9.10;;
20966;SDS011;10642;50.682;18.510;2023-03-14T13:32:56;15.37;;;9.00;;
20966;SDS011;10642;50.682;18.510;2023-03-14T13:35:27;15.30;;;9.10;;
20966;SDS011;10642;50.682;18.510;2023-03-14T13:37:55;13.97;;;9.70;;
20966;SDS011;10642;50.682;18.510;2023-03-14T13:40:37;17.20;;;9.47;;
20966;SDS011;10642;50.682;18.510;2023-03-14T13:45:56;16.50;;;9.83;;
20966;SDS011;10642;50.682;18.510;2023-03-14T13:48:25;13.50;;;8.20;;
20966;SDS011;10642;50.682;18.510;2023-03-14T13:50:58;15.50;;;9.17;;
20966;SDS011;10642;50.682;18.510;2023-03-14T13:53:26;14.73;;;9.30;;
20966;SDS011;10642;50.682;18.510;2023-03-14T13:55:53;14.47;;;8.83;;
20966;SDS011;10642;50.682;18.510;2023-03-14T13:58:21;18.37;;;10.23;;
20966;SDS011;10642;50.682;18.510;2023-03-14T14:00:59;21.57;;;11.43;;
20966;SDS011;10642;50.682;18.510;2023-03-14T14:03:27;20.50;;;11.07;;
20966;SDS011;10642;50.682;18.510;2023-03-14T14:05:55;21.13;;;11.63;;
20966;SDS011;10642;50.682;18.510;2023-03-14T14:08:23;20.83;;;11.23;;
20966;SDS011;10642;50.682;18.510;2023-03-14T14:10:52;23.30;;;12.47;;
20966;SDS011;10642;50.682;18.510;2023-03-14T14:13:20;19.57;;;11.40;;
20966;SDS011;10642;50.682;18.510;2023-03-14T14:15:49;20.13;;;12.30;;
20966;SDS011;10642;50.682;18.510;2023-03-14T14:18:18;21.33;;;13.37;;
20966;SDS011;10642;50.682;18.510;2023-03-14T14:20:47;20.73;;;11.67;;
20966;SDS011;10642;50.682;18.510;2023-03-14T14:23:16;20.30;;;11.63;;
20966;SDS011;10642;50.682;18.510;2023-03-14T14:25:45;19.67;;;11.33;;
20966;SDS011;10642;50.682;18.510;2023-03-14T14:28:32;21.80;;;11.93;;
20966;SDS011;10642;50.682;18.510;2023-03-14T14:31:00;22.47;;;12.80;;
20966;SDS011;10642;50.682;18.510;2023-03-14T14:33:27;16.17;;;10.43;;
20966;SDS011;10642;50.682;18.510;2023-03-14T14:35:57;24.43;;;13.27;;
20966;SDS011;10642;50.682;18.510;2023-03-14T14:38:24;16.93;;;10.37;;
20966;SDS011;10642;50.682;18.510;2023-03-14T14:40:53;18.20;;;11.23;;
20966;SDS011;10642;50.682;18.510;2023-03-14T14:43:24;18.50;;;10.77;;
20966;SDS011;10642;50.682;18.510;2023-03-14T14:45:53;21.57;;;10.50;;
20966;SDS011;10642;50.682;18.510;2023-03-14T14:48:22;15.43;;;9.53;;
20966;SDS011;10642;50.682;18.510;2023-03-14T14:51:02;17.10;;;9.70;;
20966;SDS011;10642;50.682;18.510;2023-03-14T14:53:36;15.77;;;10.00;;
20966;SDS011;10642;50.682;18.510;2023-03-14T14:56:06;16.70;;;9.67;;
20966;SDS011;10642;50.682;18.510;2023-03-14T14:58:34;16.07;;;9.73;;
20966;SDS011;10642;50.682;18.510;2023-03-14T15:01:05;16.43;;;9.70;;
20966;SDS011;10642;50.682;18.510;2023-03-14T15:03:34;15.00;;;9.30;;
20966;SDS011;10642;50.682;18.510;2023-03-14T15:06:02;15.60;;;9.03;;
20966;SDS011;10642;50.682;18.510;2023-03-14T15:08:30;13.90;;;8.73;;
20966;SDS011;10642;50.682;18.510;2023-03-14T15:10:57;16.60;;;8.80;;
20966;SDS011;10642;50.682;18.510;2023-03-14T15:13:24;14.97;;;9.20;;
20966;SDS011;10642;50.682;18.510;2023-03-14T15:15:51;16.73;;;7.33;;
20966;SDS011;10642;50.682;18.510;2023-03-14T15:18:23;13.90;;;9.93;;
20966;SDS011;10642;50.682;18.510;2023-03-14T15:20:51;15.50;;;9.17;;
20966;SDS011;10642;50.682;18.510;2023-03-14T15:23:18;12.97;;;7.67;;
20966;SDS011;10642;50.682;18.510;2023-03-14T15:25:46;9.60;;;5.53;;
20966;SDS011;10642;50.682;18.510;2023-03-14T15:28:25;14.90;;;8.70;;
20966;SDS011;10642;50.682;18.510;2023-03-14T15:30:53;17.23;;;8.90;;
20966;SDS011;10642;50.682;18.510;2023-03-14T15:33:20;14.63;;;8.40;;
20966;SDS011;10642;50.682;18.510;2023-03-14T15:35:47;14.70;;;7.47;;
20966;SDS011;10642;50.682;18.510;2023-03-14T15:38:15;14.27;;;8.77;;
20966;SDS011;10642;50.682;18.510;2023-03-14T15:40:43;15.37;;;7.33;;
20966;SDS011;10642;50.682;18.510;2023-03-14T15:43:09;11.17;;;6.97;;
20966;SDS011;10642;50.682;18.510;2023-03-14T15:45:36;14.43;;;7.97;;
20966;SDS011;10642;50.682;18.510;2023-03-14T15:48:03;12.60;;;7.63;;
20966;SDS011;10642;50.682;18.510;2023-03-14T15:50:30;15.53;;;8.03;;
20966;SDS011;10642;50.682;18.510;2023-03-14T15:52:57;15.73;;;10.20;;
20966;SDS011;10642;50.682;18.510;2023-03-14T15:55:24;13.17;;;8.40;;
20966;SDS011;10642;50.682;18.510;2023-03-14T15:57:51;16.87;;;8.63;;